Time;durP1;ratioP1;P1;durP2;ratioP2;P2;SDS_P1;SDS_P2;PMS_P1;PMS_P2;Temp;Humidity;BMP_temperature;BMP_pressure;BME280_temperature;BME280_humidity;BME280_pressure;Samples;Min_cycle;Max_cycle;Signal;HPM_P1;HPM_P2
2023/07/31 00:02:30;;;;;;;5.67;3.63;;;16.60;99.90;;;;;;2610976;54;20170;-75
2023/07/31 00:08:17;;;;;;;8.67;4.40;;;16.50;99.90;;;;;;2611154;46;20158;-76
2023/07/31 00:14:05;;;;;;;13.07;7.13;;;16.40;99.90;;;;;;2612031;54;20122;-76
2023/07/31 00:19:53;;;;;;;4.17;2.23;;;16.70;99.90;;;;;;2611145;54;20150;-75
2023/07/31 00:25:41;;;;;;;11.30;4.90;;;16.60;99.90;;;;;;2611644;54;20690;-75
2023/07/31 00:31:29;;;;;;;5.00;4.10;;;16.60;99.90;;;;;;2613222;54;20391;-76
2023/07/31 00:37:17;;;;;;;10.80;4.70;;;16.60;99.90;;;;;;2614374;39;20531;-76
2023/07/31 00:47:10;;;;;;;9.20;5.00;;;16.50;99.90;;;;;;2610945;54;20390;-76
2023/07/31 00:52:58;;;;;;;8.13;5.40;;;16.60;99.90;;;;;;2610560;54;20395;-76
2023/07/31 00:58:46;;;;;;;14.63;5.83;;;16.50;99.90;;;;;;2611022;54;20886;-76
2023/07/31 01:04:34;;;;;;;11.43;5.43;;;16.50;99.90;;;;;;2611652;54;20134;-76
2023/07/31 01:10:26;;;;;;;12.93;5.37;;;16.60;99.90;;;;;;2613061;54;20452;-76
2023/07/31 01:16:14;;;;;;;12.03;5.03;;;16.60;99.90;;;;;;2613556;39;20742;-76
2023/07/31 01:22:20;;;;;;;9.80;4.90;;;16.50;99.90;;;;;;2612733;54;20423;-77
2023/07/31 01:28:15;;;;;;;11.80;5.43;;;16.50;99.90;;;;;;2613113;54;20501;-76
2023/07/31 01:34:03;;;;;;;12.20;4.00;;;16.50;99.90;;;;;;2612013;54;20403;-78
2023/07/31 01:39:52;;;;;;;10.13;5.53;;;16.60;99.90;;;;;;2611457;54;20439;-76
2023/07/31 01:42:38;;;;;;;4.47;3.27;;;16.60;99.90;;;;;;2611167;46;20487;-77
2023/07/31 01:45:04;;;;;;;7.73;3.77;;;16.50;99.90;;;;;;2611279;54;20422;-77
2023/07/31 01:50:52;;;;;;;10.83;4.80;;;16.40;99.90;;;;;;2612070;54;20375;-77
2023/07/31 01:56:40;;;;;;;14.07;5.30;;;16.50;99.90;;;;;;2612436;54;20126;-77
2023/07/31 02:02:28;;;;;;;11.20;4.90;;;16.50;99.90;;;;;;2611540;54;20652;-73
2023/07/31 02:08:16;;;;;;;9.73;3.40;;;16.40;99.90;;;;;;2611112;54;20126;-72
2023/07/31 02:14:04;;;;;;;7.73;3.73;;;16.00;99.90;;;;;;2611087;54;20487;-73
2023/07/31 02:19:51;;;;;;;9.40;5.00;;;16.20;99.90;;;;;;2612763;54;20572;-74
2023/07/31 02:25:39;;;;;;;9.33;4.67;;;16.10;99.90;;;;;;2613052;54;20150;-72
2023/07/31 02:31:26;;;;;;;9.00;5.60;;;16.20;99.90;;;;;;2611923;54;20640;-72
2023/07/31 02:37:14;;;;;;;9.77;4.10;;;16.20;99.90;;;;;;2612255;54;20283;-72
2023/07/31 02:47:11;;;;;;;11.20;5.10;;;16.10;99.90;;;;;;2612180;54;20352;-72
2023/07/31 02:52:58;;;;;;;7.90;4.03;;;16.40;21.90;;;;;;2612623;46;20371;-73
2023/07/31 02:58:46;;;;;;;11.60;3.70;;;16.30;40.00;;;;;;2612378;54;20123;-71
2023/07/31 03:04:34;;;;;;;5.27;3.40;;;16.30;8.10;;;;;;2612016;54;20163;-71
2023/07/31 03:10:21;;;;;;;7.07;4.30;;;16.40;1.00;;;;;;2614736;54;20138;-71
2023/07/31 03:16:09;;;;;;;9.97;4.87;;;16.40;1.00;;;;;;2612743;54;20123;-71
2023/07/31 03:21:57;;;;;;;6.53;3.63;;;16.40;1.00;;;;;;2611266;54;20158;-75
2023/07/31 03:27:45;;;;;;;11.10;5.00;;;16.40;1.00;;;;;;2611325;54;20279;-75
2023/07/31 03:33:32;;;;;;;18.93;5.83;;;16.40;1.00;;;;;;2611270;54;20139;-74
2023/07/31 03:39:20;;;;;;;8.87;4.20;;;16.60;1.00;;;;;;2611336;46;20235;-74
2023/07/31 03:42:41;;;;;;;9.00;4.80;;;16.50;1.00;;;;;;2609901;54;20492;-75
2023/07/31 03:45:07;;;;;;;8.30;3.90;;;16.50;1.00;;;;;;2610656;54;20760;-74
2023/07/31 03:50:55;;;;;;;10.70;4.83;;;16.60;1.00;;;;;;2609504;54;20463;-75
2023/07/31 03:56:43;;;;;;;9.17;5.63;;;16.50;1.00;;;;;;2611529;54;20993;-75
2023/07/31 04:02:31;;;;;;;8.47;4.77;;;16.50;1.00;;;;;;2610928;54;20247;-74
2023/07/31 04:08:19;;;;;;;7.70;3.90;;;16.80;1.00;;;;;;2611758;54;20150;-72
2023/07/31 04:14:06;;;;;;;11.10;4.20;;;16.90;1.00;;;;;;2613055;54;20123;-74
2023/07/31 04:19:54;;;;;;;10.60;4.73;;;16.90;1.00;;;;;;2611838;54;20123;-71
2023/07/31 04:25:42;;;;;;;12.50;5.50;;;16.80;1.00;;;;;;2612423;54;20693;-72
2023/07/31 04:31:29;;;;;;;11.70;5.87;;;16.80;1.00;;;;;;2611445;54;20215;-72
2023/07/31 04:37:17;;;;;;;17.03;5.47;;;16.80;1.00;;;;;;2612487;54;20143;-73
2023/07/31 04:47:14;;;;;;;11.40;4.77;;;16.80;1.00;;;;;;2611011;54;20398;-73
2023/07/31 04:53:01;;;;;;;8.07;4.47;;;16.80;1.00;;;;;;2612638;39;20868;-73
2023/07/31 04:58:49;;;;;;;9.77;4.73;;;16.80;1.00;;;;;;2611454;54;20274;-73
2023/07/31 05:04:37;;;;;;;9.77;4.90;;;16.80;1.50;;;;;;2611532;54;20167;-73
2023/07/31 05:10:24;;;;;;;11.07;5.00;;;16.80;1.00;;;;;;2611579;54;20847;-74
2023/07/31 05:16:12;;;;;;;13.40;5.67;;;17.00;1.00;;;;;;2610902;54;20143;-74
2023/07/31 05:22:00;;;;;;;5.87;4.00;;;17.00;1.00;;;;;;2611208;46;20274;-73
2023/07/31 05:27:48;;;;;;;6.50;4.90;;;17.00;1.00;;;;;;2610444;54;20150;-74
2023/07/31 05:33:35;;;;;;;12.73;5.60;;;16.90;11.60;;;;;;2614348;54;20127;-73
2023/07/31 05:39:23;;;;;;;10.20;5.57;;;17.00;9.10;;;;;;2613951;54;20242;-73
2023/07/31 05:42:42;;;;;;;17.63;5.27;;;17.00;1.70;;;;;;2613904;39;20782;-73
2023/07/31 05:45:07;;;;;;;11.07;5.20;;;17.00;16.20;;;;;;2613463;54;20184;-73
2023/07/31 05:50:56;;;;;;;6.23;4.00;;;17.10;1.00;;;;;;2615065;54;21072;-72
2023/07/31 05:56:43;;;;;;;9.90;5.90;;;16.80;70.40;;;;;;2607905;54;20154;-75
2023/07/31 06:02:33;;;;;;;6.20;5.33;;;16.70;99.90;;;;;;2613550;54;20254;-73
2023/07/31 06:08:20;;;;;;;11.87;6.37;;;16.70;99.90;;;;;;2613318;54;20511;-73
2023/07/31 06:14:08;;;;;;;10.70;6.30;;;16.80;96.50;;;;;;2614364;54;20139;-73
2023/07/31 06:19:57;;;;;;;9.07;5.17;;;16.90;72.10;;;;;;2611684;54;20114;-73
2023/07/31 06:25:44;;;;;;;9.40;6.60;;;16.90;87.40;;;;;;2613893;54;20512;-74
2023/07/31 06:31:32;;;;;;;13.40;7.67;;;17.00;86.00;;;;;;2613311;54;20166;-73
2023/07/31 06:37:20;;;;;;;12.13;6.40;;;16.90;99.90;;;;;;2613649;54;20242;-73
2023/07/31 06:47:10;;;;;;;9.60;6.60;;;16.90;99.90;;;;;;2614236;54;20391;-73
2023/07/31 06:52:58;;;;;;;7.37;4.77;;;16.80;99.90;;;;;;2612983;54;20391;-74
2023/07/31 06:58:45;;;;;;;9.30;6.23;;;16.90;99.90;;;;;;2612979;54;20395;-74
2023/07/31 07:04:33;;;;;;;6.27;4.70;;;16.90;99.90;;;;;;2614944;54;20162;-73
2023/07/31 07:10:21;;;;;;;8.33;4.67;;;17.00;99.90;;;;;;2613433;54;20126;-74
2023/07/31 07:16:10;;;;;;;6.00;4.67;;;16.80;99.90;;;;;;2615885;31;20652;-74
2023/07/31 07:21:59;;;;;;;7.23;4.70;;;16.70;99.90;;;;;;2614782;54;20399;-74
2023/07/31 07:27:47;;;;;;;7.97;4.97;;;16.70;99.90;;;;;;2615260;54;20419;-75
2023/07/31 07:33:35;;;;;;;8.87;4.03;;;16.80;99.90;;;;;;2613940;54;20154;-74
2023/07/31 07:39:23;;;;;;;8.20;5.50;;;16.90;99.90;;;;;;2614285;54;20171;-75
2023/07/31 07:42:42;;;;;;;9.03;5.70;;;16.80;99.90;;;;;;2613063;54;20467;-75
2023/07/31 07:45:08;;;;;;;10.33;5.47;;;17.00;99.90;;;;;;2614573;31;20658;-74
2023/07/31 07:50:56;;;;;;;8.13;5.13;;;17.00;99.90;;;;;;2613586;54;20575;-75
2023/07/31 07:56:43;;;;;;;10.10;6.30;;;17.00;99.90;;;;;;2613229;54;20238;-74
2023/07/31 08:02:31;;;;;;;9.23;5.10;;;16.90;99.90;;;;;;2613293;54;20142;-74
2023/07/31 08:08:19;;;;;;;10.20;4.97;;;16.80;99.90;;;;;;2614727;54;20123;-78
2023/07/31 08:14:07;;;;;;;10.40;5.10;;;16.70;99.90;;;;;;2615176;54;21015;-80
2023/07/31 08:19:58;;;;;;;8.07;4.10;;;16.60;99.90;;;;;;2615082;54;20488;-78
2023/07/31 08:25:46;;;;;;;9.60;4.83;;;16.60;99.90;;;;;;2614959;54;20423;-79
2023/07/31 08:31:34;;;;;;;7.60;3.80;;;16.90;99.90;;;;;;2614482;54;20367;-78
2023/07/31 08:37:35;;;;;;;3.37;3.03;;;16.70;99.90;;;;;;2613239;54;20455;-78
2023/07/31 08:47:12;;;;;;;5.80;3.37;;;16.70;99.90;;;;;;2613956;39;20860;-78
2023/07/31 08:52:59;;;;;;;5.00;3.47;;;16.70;99.90;;;;;;2612607;54;20523;-74
2023/07/31 08:58:47;;;;;;;5.37;3.33;;;16.70;99.90;;;;;;2613656;54;20126;-73
2023/07/31 09:04:34;;;;;;;5.27;3.43;;;16.60;99.90;;;;;;2612034;54;20540;-74
2023/07/31 09:10:22;;;;;;;4.93;3.10;;;16.70;99.90;;;;;;2612727;54;20909;-74
2023/07/31 09:16:10;;;;;;;3.50;2.60;;;16.50;99.90;;;;;;2615284;54;20383;-74
2023/07/31 09:21:58;;;;;;;4.50;3.60;;;16.30;99.90;;;;;;2613996;54;20455;-74
2023/07/31 09:27:47;;;;;;;5.40;3.23;;;16.50;99.90;;;;;;2614855;54;20125;-75
2023/07/31 09:51:06;;;;;;;3.77;3.30;;;17.10;99.90;;;;;;2614261;54;20501;-76
2023/07/31 09:56:56;;;;;;;3.10;2.07;;;17.00;99.90;;;;;;2614837;39;20836;-75
2023/07/31 10:02:49;;;;;;;3.20;2.70;;;16.90;99.90;;;;;;2614894;39;20827;-76
2023/07/31 10:08:38;;;;;;;4.67;2.90;;;17.10;99.90;;;;;;2613683;54;20391;-76
2023/07/31 10:14:27;;;;;;;4.00;2.43;;;17.00;99.90;;;;;;2614646;54;20398;-76
2023/07/31 10:20:18;;;;;;;3.23;2.83;;;16.90;99.90;;;;;;2613908;54;20400;-75
2023/07/31 10:26:08;;;;;;;4.70;2.60;;;17.00;99.90;;;;;;2614263;54;20973;-76
2023/07/31 10:31:58;;;;;;;3.93;2.33;;;16.90;99.90;;;;;;2614724;54;20953;-76
2023/07/31 10:37:45;;;;;;;5.67;5.03;;;16.90;99.90;;;;;;2615159;54;20472;-76
2023/07/31 10:47:15;;;;;;;10.83;2.97;;;16.80;99.90;;;;;;2615080;54;20399;-74
2023/07/31 10:53:03;;;;;;;8.93;3.30;;;16.90;99.90;;;;;;2615372;54;20941;-73
2023/07/31 11:05:49;;;;;;;6.70;4.70;;;17.20;99.90;;;;;;2616120;39;20810;-72
2023/07/31 11:11:37;;;;;;;7.50;4.20;;;17.40;99.90;;;;;;2616624;54;20524;-73
2023/07/31 11:17:26;;;;;;;4.33;3.83;;;17.50;82.80;;;;;;2616771;54;20126;-74
2023/07/31 11:23:17;;;;;;;7.30;3.60;;;17.90;44.60;;;;;;2616859;54;20395;-73
2023/07/31 11:29:11;;;;;;;6.27;3.37;;;18.10;1.00;;;;;;2616398;54;20491;-73
2023/07/31 11:35:00;;;;;;;4.40;4.00;;;18.40;1.00;;;;;;2617521;39;20865;-72
2023/07/31 11:40:48;;;;;;;6.30;4.07;;;18.10;1.00;;;;;;2615019;54;20431;-73
2023/07/31 11:49:58;;;;;;;5.80;4.10;;;18.70;1.00;;;;;;2614128;54;20431;-74
2023/07/31 11:55:46;;;;;;;3.40;2.90;;;18.90;1.00;;;;;;2614903;54;20162;-74
2023/07/31 12:01:34;;;;;;;6.30;3.67;;;18.90;1.00;;;;;;2614755;39;20765;-74
2023/07/31 12:07:23;;;;;;;4.63;3.37;;;19.40;1.00;;;;;;2613341;54;20511;-74
2023/07/31 12:19:29;;;;;;;4.17;2.33;;;18.80;1.00;;;;;;2615568;54;20952;-72
2023/07/31 12:25:17;;;;;;;3.90;2.80;;;18.40;1.00;;;;;;2615591;54;20411;-75
2023/07/31 12:31:05;;;;;;;7.80;3.43;;;18.40;1.00;;;;;;2616191;54;20147;-73
2023/07/31 12:36:54;;;;;;;4.47;3.47;;;18.20;28.20;;;;;;2616376;54;20384;-71
2023/07/31 12:42:42;;;;;;;4.20;2.50;;;18.10;30.00;;;;;;2614012;54;20383;-74
2023/07/31 12:45:26;;;;;;;4.40;3.23;;;18.20;26.00;;;;;;2614949;54;20520;-72
2023/07/31 12:47:52;;;;;;;4.00;3.13;;;18.30;1.00;;;;;;2615501;54;21065;-73
2023/07/31 12:53:40;;;;;;;3.10;2.80;;;18.60;1.00;;;;;;2612011;54;20151;-73
2023/07/31 12:59:28;;;;;;;2.60;2.00;;;18.90;1.00;;;;;;2611149;54;20133;-75
2023/07/31 13:05:16;;;;;;;3.20;2.20;;;18.80;1.00;;;;;;2611175;54;20147;-74
2023/07/31 13:11:04;;;;;;;2.60;2.10;;;18.50;1.00;;;;;;2612913;39;20603;-73
2023/07/31 13:16:52;;;;;;;4.40;3.80;;;18.40;1.00;;;;;;2611893;54;20450;-73
2023/07/31 13:22:39;;;;;;;3.10;2.17;;;18.30;49.10;;;;;;2611928;54;20158;-74
2023/07/31 13:28:28;;;;;;;3.80;2.50;;;18.40;30.00;;;;;;2612595;39;20706;-74
2023/07/31 13:34:15;;;;;;;5.20;3.43;;;18.90;1.00;;;;;;2614260;54;20134;-73
2023/07/31 13:40:07;;;;;;;5.63;3.00;;;18.90;1.00;;;;;;2614407;39;20519;-71
2023/07/31 13:49:58;;;;;;;3.07;2.77;;;18.80;1.00;;;;;;2615892;46;20427;-73
2023/07/31 13:55:49;;;;;;;3.80;2.97;;;18.80;1.00;;;;;;2616382;39;20841;-72
2023/07/31 14:01:36;;;;;;;4.37;3.20;;;19.00;1.00;;;;;;2614770;39;21030;-76
2023/07/31 14:07:24;;;;;;;3.30;2.80;;;19.20;1.00;;;;;;2615403;54;20187;-76
2023/07/31 14:13:11;;;;;;;4.60;2.83;;;19.60;1.00;;;;;;2615061;54;20146;-76
2023/07/31 14:18:59;;;;;;;4.40;3.20;;;20.00;1.00;;;;;;2614756;54;20688;-77
2023/07/31 14:24:47;;;;;;;3.87;3.10;;;20.50;1.00;;;;;;2615573;54;20248;-77
2023/07/31 14:30:34;;;;;;;7.80;3.67;;;21.20;1.00;;;;;;2615758;54;20153;-77
2023/07/31 14:36:23;;;;;;;6.00;5.10;;;20.30;1.00;;;;;;2613181;54;20171;-77
2023/07/31 14:42:10;;;;;;;4.83;3.20;;;20.10;1.00;;;;;;2614380;54;20506;-76
2023/07/31 14:45:28;;;;;;;4.77;3.83;;;19.90;1.00;;;;;;2615423;54;20509;-76
2023/07/31 14:47:54;;;;;;;6.30;3.90;;;19.70;1.00;;;;;;2614319;46;20170;-76
2023/07/31 14:53:42;;;;;;;5.90;4.33;;;19.30;1.00;;;;;;2615734;54;20134;-76
2023/07/31 14:59:29;;;;;;;5.93;4.43;;;19.20;1.00;;;;;;2613212;54;20155;-77
2023/07/31 15:05:17;;;;;;;4.23;3.63;;;18.80;1.00;;;;;;2613663;54;20126;-75
2023/07/31 15:11:10;;;;;;;6.23;3.80;;;18.80;1.00;;;;;;2615220;54;20134;-72
2023/07/31 15:16:57;;;;;;;6.40;4.00;;;18.60;1.00;;;;;;2613525;54;20395;-73
2023/07/31 15:22:46;;;;;;;7.67;4.73;;;18.40;1.00;;;;;;2613546;46;20884;-73
2023/07/31 15:28:36;;;;;;;6.83;4.27;;;18.60;1.00;;;;;;2614351;54;20218;-73
2023/07/31 15:34:24;;;;;;;6.30;4.60;;;18.60;1.00;;;;;;2613825;54;20387;-75
2023/07/31 15:40:12;;;;;;;5.93;4.07;;;18.70;1.00;;;;;;2616401;54;20234;-74
2023/07/31 15:43:15;;;;;;;7.23;4.13;;;18.80;1.00;;;;;;2615744;54;20942;-73
2023/07/31 15:49:56;;;;;;;6.00;4.97;;;18.90;1.00;;;;;;2616325;54;20428;-73
2023/07/31 15:52:22;;;;;;;7.63;4.57;;;18.90;1.00;;;;;;2616016;39;20812;-75
2023/07/31 15:58:10;;;;;;;5.23;4.30;;;19.00;1.00;;;;;;2615740;54;20150;-73
2023/07/31 16:03:58;;;;;;;9.23;4.83;;;19.00;1.00;;;;;;2616325;54;20383;-73
2023/07/31 16:09:46;;;;;;;5.23;4.30;;;19.10;1.00;;;;;;2616159;46;20155;-73
2023/07/31 16:15:34;;;;;;;8.27;5.27;;;19.00;1.00;;;;;;2616522;54;20139;-73
2023/07/31 16:21:22;;;;;;;10.10;3.93;;;18.40;1.00;;;;;;2614826;54;20656;-74
2023/07/31 16:27:09;;;;;;;6.93;4.10;;;17.80;1.00;;;;;;2614943;54;20130;-74
2023/07/31 16:32:57;;;;;;;6.07;4.27;;;17.70;42.60;;;;;;2613402;54;20130;-75
2023/07/31 16:38:44;;;;;;;6.17;4.77;;;17.60;84.80;;;;;;2614785;54;20151;-74
2023/07/31 16:44:32;;;;;;;9.13;4.50;;;17.70;73.30;;;;;;2614480;54;20150;-75
2023/07/31 16:50:19;;;;;;;6.00;3.93;;;17.60;99.90;;;;;;2614492;54;20122;-75
2023/07/31 16:56:07;;;;;;;7.70;4.10;;;17.80;30.80;;;;;;2615196;39;20559;-75
2023/07/31 17:01:57;;;;;;;7.87;6.03;;;17.70;61.10;;;;;;2614480;54;20375;-75
2023/07/31 17:07:45;;;;;;;5.90;4.40;;;17.60;99.90;;;;;;2614306;54;20409;-72
2023/07/31 17:13:33;;;;;;;9.37;5.00;;;17.60;95.30;;;;;;2614955;54;20131;-74
2023/07/31 17:19:20;;;;;;;11.20;7.10;;;17.60;99.90;;;;;;2614993;54;20797;-73
2023/07/31 17:25:08;;;;;;;8.87;7.83;;;17.60;91.70;;;;;;2615553;39;20691;-75
2023/07/31 17:30:56;;;;;;;8.60;6.67;;;17.40;99.90;;;;;;2614850;54;20243;-75
2023/07/31 17:36:43;;;;;;;7.30;4.67;;;17.40;99.90;;;;;;2614188;54;20641;-76
2023/07/31 17:42:31;;;;;;;4.90;4.00;;;17.40;99.90;;;;;;2615204;39;20544;-77
2023/07/31 17:48:31;;;;;;;5.30;3.30;;;17.30;99.90;;;;;;2613147;54;20283;-76
2023/07/31 17:54:19;;;;;;;4.63;4.10;;;17.20;99.90;;;;;;2613244;54;20391;-76
2023/07/31 18:00:07;;;;;;;5.40;3.07;;;17.00;99.90;;;;;;2613697;54;20230;-74
2023/07/31 18:05:55;;;;;;;6.47;3.57;;;16.90;99.90;;;;;;2613252;46;20437;-75
2023/07/31 18:11:42;;;;;;;9.47;3.20;;;16.70;99.90;;;;;;2613316;54;20417;-74
2023/07/31 18:17:30;;;;;;;4.73;2.90;;;16.60;99.90;;;;;;2613087;54;20158;-75
2023/07/31 18:23:17;;;;;;;5.03;3.37;;;16.60;99.90;;;;;;2610874;54;20682;-75
2023/07/31 18:29:04;;;;;;;8.40;3.10;;;16.60;99.90;;;;;;2614289;54;20122;-74
2023/07/31 18:34:52;;;;;;;3.10;2.73;;;16.50;99.90;;;;;;2613965;54;20134;-75
2023/07/31 18:40:43;;;;;;;4.10;2.50;;;16.50;99.90;;;;;;2616335;39;20588;-80
2023/07/31 18:49:56;;;;;;;5.97;3.33;;;16.60;99.90;;;;;;2616799;54;20447;-81
2023/07/31 18:55:44;;;;;;;4.40;2.10;;;16.60;99.90;;;;;;2613946;54;20419;-81
2023/07/31 19:01:31;;;;;;;2.40;2.00;;;16.60;99.90;;;;;;2613653;54;20443;-79
2023/07/31 19:07:19;;;;;;;4.70;2.30;;;16.60;99.90;;;;;;2614761;54;20135;-82
2023/07/31 19:13:07;;;;;;;3.27;2.27;;;16.50;99.90;;;;;;2632628;36;20158;-80
2023/07/31 19:18:55;;;;;;;2.20;1.60;;;16.50;99.90;;;;;;2615160;54;20139;-81
2023/07/31 19:24:43;;;;;;;3.20;1.97;;;16.60;99.90;;;;;;2616096;54;20395;-81
2023/07/31 19:30:31;;;;;;;3.03;2.00;;;16.60;99.90;;;;;;2612167;54;20291;-76
2023/07/31 19:36:20;;;;;;;2.23;1.10;;;16.60;99.90;;;;;;2611454;54;20138;-76
2023/07/31 19:42:08;;;;;;;3.57;1.90;;;16.60;99.90;;;;;;2613624;54;20527;-75
2023/07/31 19:45:29;;;;;;;2.30;1.43;;;16.60;99.90;;;;;;2614322;54;20420;-76
2023/07/31 19:47:55;;;;;;;2.30;1.83;;;16.60;99.90;;;;;;2613346;54;20179;-77
2023/07/31 19:53:43;;;;;;;2.60;1.57;;;16.70;99.90;;;;;;2614525;54;20375;-76
2023/07/31 19:59:31;;;;;;;2.20;1.70;;;16.70;99.90;;;;;;2613342;54;20146;-77
2023/07/31 20:05:18;;;;;;;2.90;2.17;;;16.80;99.90;;;;;;2614497;54;20423;-77
2023/07/31 20:11:08;;;;;;;2.40;1.70;;;16.70;99.90;;;;;;2614778;54;20130;-77
2023/07/31 20:16:56;;;;;;;2.37;1.10;;;16.70;99.90;;;;;;2614883;54;20941;-77
2023/07/31 20:22:43;;;;;;;1.80;1.50;;;16.80;99.90;;;;;;2614711;54;20148;-77
2023/07/31 20:28:31;;;;;;;3.00;1.90;;;16.80;99.90;;;;;;2613346;54;20123;-76
2023/07/31 20:34:19;;;;;;;5.50;1.67;;;17.00;99.90;;;;;;2613874;39;20794;-76
2023/07/31 20:40:08;;;;;;;4.20;1.57;;;16.80;99.90;;;;;;2614098;54;20165;-77
2023/07/31 20:49:58;;;;;;;1.90;1.33;;;17.00;99.90;;;;;;2614249;54;20986;-75
2023/07/31 20:55:47;;;;;;;2.00;1.37;;;17.00;99.90;;;;;;2614197;54;20384;-76
2023/07/31 21:01:34;;;;;;;2.33;1.50;;;16.90;99.90;;;;;;2615109;54;21235;-77
2023/07/31 21:07:22;;;;;;;2.80;1.90;;;16.80;99.90;;;;;;2613482;54;20126;-77
2023/07/31 21:13:10;;;;;;;2.10;1.23;;;16.90;99.90;;;;;;2614908;46;20158;-76
2023/07/31 21:18:58;;;;;;;2.50;1.30;;;17.00;99.90;;;;;;2616392;39;20197;-79
2023/07/31 21:24:45;;;;;;;1.77;1.00;;;16.90;99.90;;;;;;2615952;54;20129;-78
2023/07/31 21:30:34;;;;;;;2.37;1.10;;;16.90;99.90;;;;;;2615891;54;20115;-78
2023/07/31 21:36:22;;;;;;;3.67;1.23;;;16.80;99.90;;;;;;2615350;54;20415;-77
2023/07/31 21:42:09;;;;;;;2.47;1.73;;;16.80;99.90;;;;;;2616093;54;20134;-80
2023/07/31 21:45:13;;;;;;;3.33;1.60;;;16.90;99.90;;;;;;2615361;54;21088;-80
2023/07/31 21:58:01;;;;;;;2.23;1.40;;;16.80;99.90;;;;;;2615203;54;20484;-79
2023/07/31 22:03:48;;;;;;;2.10;1.50;;;16.70;99.90;;;;;;2613079;54;20675;-79
2023/07/31 22:06:33;;;;;;;2.53;1.40;;;16.70;99.90;;;;;;2613739;54;20479;-75
2023/07/31 22:08:58;;;;;;;2.23;1.50;;;16.70;99.90;;;;;;2614030;39;20861;-74
2023/07/31 22:14:47;;;;;;;2.33;1.50;;;16.80;99.90;;;;;;2613943;54;20127;-74
2023/07/31 22:20:34;;;;;;;2.37;1.90;;;16.70;99.90;;;;;;2615278;54;21011;-75
2023/07/31 22:26:21;;;;;;;2.40;1.77;;;16.80;99.90;;;;;;2615670;54;20250;-75
2023/07/31 22:32:09;;;;;;;2.20;1.40;;;16.80;99.90;;;;;;2615146;54;20138;-75
2023/07/31 22:37:57;;;;;;;5.13;2.00;;;16.80;99.90;;;;;;2615863;54;20909;-75
2023/07/31 22:43:45;;;;;;;3.40;1.50;;;16.80;99.90;;;;;;2615586;54;21462;-75
2023/07/31 22:49:48;;;;;;;2.00;1.10;;;16.80;99.90;;;;;;2612567;54;20150;-74
2023/07/31 22:55:36;;;;;;;1.67;0.97;;;;;;;;;;2613633;54;20175;-77
2023/07/31 23:01:06;;;;;;;1.40;0.83;;;;;;;;;;2613027;54;20386;-77
2023/07/31 23:19:23;;;;;;;2.00;1.03;;;16.60;99.90;;;;;;2613482;54;20390;-75
2023/07/31 23:25:11;;;;;;;1.93;0.80;;;16.50;99.90;;;;;;2614479;46;20416;-75
2023/07/31 23:31:03;;;;;;;1.80;1.10;;;16.60;99.90;;;;;;2613479;54;20159;-75
2023/07/31 23:36:50;;;;;;;2.07;1.00;;;16.50;99.90;;;;;;2614234;54;20375;-74
2023/07/31 23:42:38;;;;;;;3.90;1.23;;;16.50;99.90;;;;;;2614909;54;20123;-75
